Time;durP1;ratioP1;P1;durP2;ratioP2;P2;SDS_P1;SDS_P2;PMS_P1;PMS_P2;Temp;Humidity;BMP_temperature;BMP_pressure;BME280_temperature;BME280_humidity;BME280_pressure;Samples;Min_cycle;Max_cycle;Signal;HPM_P1;HPM_P2
2019/11/30 00:00:43;;;;;;;12.4;6.1;;;;;;;;;;;;;
2019/11/30 00:03:01;;;;;;;12.6;7;;;;;;;;;;;;;
2019/11/30 00:05:26;;;;;;;12.2;8.5;;;;;;;;;;;;;
2019/11/30 00:07:57;;;;;;;17.4;11.3;;;;;;;;;;;;;
2019/11/30 00:10:17;;;;;;;13.3;8.3;;;;;;;;;;;;;
2019/11/30 00:12:43;;;;;;;12.4;8.2;;;;;;;;;;;;;
2019/11/30 00:15:08;;;;;;;8.1;3.5;;;;;;;;;;;;;
2019/11/30 00:17:35;;;;;;;9.7;4.1;;;;;;;;;;;;;
2019/11/30 00:19:59;;;;;;;11.3;5.5;;;;;;;;;;;;;
2019/11/30 00:22:24;;;;;;;12.8;6.2;;;;;;;;;;;;;
2019/11/30 00:24:50;;;;;;;12.9;5.7;;;;;;;;;;;;;
2019/11/30 00:27:18;;;;;;;11.5;5.8;;;;;;;;;;;;;
2019/11/30 00:29:38;;;;;;;9.8;3.7;;;;;;;;;;;;;
2019/11/30 00:32:04;;;;;;;8.7;3.4;;;;;;;;;;;;;
2019/11/30 00:34:36;;;;;;;11.3;3.6;;;;;;;;;;;;;
2019/11/30 00:36:57;;;;;;;9.5;4.5;;;;;;;;;;;;;
2019/11/30 00:39:23;;;;;;;10.2;4.6;;;;;;;;;;;;;
2019/11/30 00:41:53;;;;;;;9.4;4.8;;;;;;;;;;;;;
2019/11/30 00:44:18;;;;;;;9;3.2;;;;;;;;;;;;;
2019/11/30 00:46:53;;;;;;;12.6;4.4;;;;;;;;;;;;;
2019/11/30 00:49:20;;;;;;;9.2;3.8;;;;;;;;;;;;;
2019/11/30 00:54:59;;;;;;;36.5;15;;;;;;;;;;;;;
2019/11/30 00:57:20;;;;;;;15;6.7;;;;;;;;;;;;;
2019/11/30 00:59:46;;;;;;;39.6;18.8;;;;;;;;;;;;;
2019/11/30 01:02:17;;;;;;;12.3;4.7;;;;;;;;;;;;;
2019/11/30 01:04:38;;;;;;;10.8;4.5;;;;;;;;;;;;;
2019/11/30 01:07:02;;;;;;;39.9;22.2;;;;;;;;;;;;;
2019/11/30 01:09:27;;;;;;;14.8;5.8;;;;;;;;;;;;;
2019/11/30 01:11:58;;;;;;;36.7;20.4;;;;;;;;;;;;;
2019/11/30 01:14:28;;;;;;;12.3;5.8;;;;;;;;;;;;;
2019/11/30 01:16:54;;;;;;;13.3;5;;;;;;;;;;;;;
2019/11/30 01:19:17;;;;;;;12.8;4.6;;;;;;;;;;;;;
2019/11/30 01:21:45;;;;;;;16.7;7.6;;;;;;;;;;;;;
2019/11/30 01:24:08;;;;;;;20.6;10.3;;;;;;;;;;;;;
2019/11/30 01:26:32;;;;;;;13.8;6.2;;;;;;;;;;;;;
2019/11/30 01:28:59;;;;;;;15.8;7.1;;;;;;;;;;;;;
2019/11/30 01:31:49;;;;;;;10.2;3.6;;;;;;;;;;;;;
2019/11/30 01:33:52;;;;;;;11;3.9;;;;;;;;;;;;;
2019/11/30 01:36:17;;;;;;;13.1;5.7;;;;;;;;;;;;;
2019/11/30 01:38:46;;;;;;;12.2;6;;;;;;;;;;;;;
2019/11/30 01:42:51;;;;;;;13.4;5.8;;;;;;;;;;;;;
2019/11/30 01:45:19;;;;;;;13.9;7.3;;;;;;;;;;;;;
2019/11/30 01:47:43;;;;;;;14.4;7.6;;;;;;;;;;;;;
2019/11/30 01:50:09;;;;;;;16.5;7.1;;;;;;;;;;;;;
2019/11/30 01:52:31;;;;;;;11.8;6.9;;;;;;;;;;;;;
2019/11/30 01:54:56;;;;;;;15.1;7.7;;;;;;;;;;;;;
2019/11/30 01:57:21;;;;;;;15.7;8;;;;;;;;;;;;;
2019/11/30 01:59:48;;;;;;;13.5;7.1;;;;;;;;;;;;;
2019/11/30 02:02:11;;;;;;;14.6;8;;;;;;;;;;;;;
2019/11/30 02:04:37;;;;;;;15.2;7.3;;;;;;;;;;;;;
2019/11/30 02:07:05;;;;;;;13.7;7.3;;;;;;;;;;;;;
2019/11/30 02:09:28;;;;;;;17.8;7.6;;;;;;;;;;;;;
2019/11/30 02:11:53;;;;;;;12.9;6;;;;;;;;;;;;;
2019/11/30 02:14:17;;;;;;;12.3;6.4;;;;;;;;;;;;;
2019/11/30 02:16:42;;;;;;;15;6.1;;;;;;;;;;;;;
2019/11/30 02:19:11;;;;;;;13.1;6.2;;;;;;;;;;;;;
2019/11/30 02:21:32;;;;;;;11.6;6;;;;;;;;;;;;;
2019/11/30 02:23:59;;;;;;;14.7;6.2;;;;;;;;;;;;;
2019/11/30 02:26:24;;;;;;;12.6;5.9;;;;;;;;;;;;;
2019/11/30 02:29:02;;;;;;;14;7.1;;;;;;;;;;;;;
2019/11/30 02:31:35;;;;;;;15.4;6.8;;;;;;;;;;;;;
2019/11/30 02:33:40;;;;;;;15.3;7.4;;;;;;;;;;;;;
2019/11/30 02:36:04;;;;;;;13.2;6.3;;;;;;;;;;;;;
2019/11/30 02:38:31;;;;;;;20.4;16.9;;;;;;;;;;;;;
2019/11/30 02:40:59;;;;;;;13.5;8.1;;;;;;;;;;;;;
2019/11/30 02:43:21;;;;;;;12.5;7.8;;;;;;;;;;;;;
2019/11/30 02:45:51;;;;;;;14.7;7.8;;;;;;;;;;;;;
2019/11/30 02:48:14;;;;;;;14.9;6.6;;;;;;;;;;;;;
2019/11/30 02:50:38;;;;;;;13;6.4;;;;;;;;;;;;;
2019/11/30 02:53:21;;;;;;;16.4;7.6;;;;;;;;;;;;;
2019/11/30 02:55:46;;;;;;;11.4;6.2;;;;;;;;;;;;;
2019/11/30 02:58:16;;;;;;;10.4;5.1;;;;;;;;;;;;;
2019/11/30 03:00:37;;;;;;;11.2;4.2;;;;;;;;;;;;;
2019/11/30 03:03:01;;;;;;;10.9;5.3;;;;;;;;;;;;;
2019/11/30 03:05:27;;;;;;;10.2;5;;;;;;;;;;;;;
2019/11/30 03:08:02;;;;;;;11.3;5.5;;;;;;;;;;;;;
2019/11/30 03:10:17;;;;;;;12.6;4.9;;;;;;;;;;;;;
2019/11/30 03:12:43;;;;;;;10.3;4.5;;;;;;;;;;;;;
2019/11/30 03:15:07;;;;;;;11.4;4.9;;;;;;;;;;;;;
2019/11/30 03:17:34;;;;;;;10;5.3;;;;;;;;;;;;;
2019/11/30 03:19:58;;;;;;;9.6;4.2;;;;;;;;;;;;;
2019/11/30 03:22:22;;;;;;;9.8;4.4;;;;;;;;;;;;;
2019/11/30 03:24:47;;;;;;;7.7;4.6;;;;;;;;;;;;;
2019/11/30 03:27:14;;;;;;;9.9;4.9;;;;;;;;;;;;;
2019/11/30 03:29:39;;;;;;;12;5.4;;;;;;;;;;;;;
2019/11/30 03:32:08;;;;;;;11.8;5.3;;;;;;;;;;;;;
2019/11/30 03:34:33;;;;;;;10.8;5.8;;;;;;;;;;;;;
2019/11/30 03:37:00;;;;;;;10;4.9;;;;;;;;;;;;;
2019/11/30 03:39:21;;;;;;;9;4.7;;;;;;;;;;;;;
2019/11/30 03:41:45;;;;;;;10;4.9;;;;;;;;;;;;;
2019/11/30 03:44:13;;;;;;;8.5;4.3;;;;;;;;;;;;;
2019/11/30 03:46:59;;;;;;;10.7;4.9;;;;;;;;;;;;;
2019/11/30 03:49:04;;;;;;;8.3;4.7;;;;;;;;;;;;;
2019/11/30 03:51:26;;;;;;;10.7;4.9;;;;;;;;;;;;;
2019/11/30 03:53:58;;;;;;;9.6;5.2;;;;;;;;;;;;;
2019/11/30 03:56:23;;;;;;;8.7;5.5;;;;;;;;;;;;;
2019/11/30 03:59:09;;;;;;;10.3;5.5;;;;;;;;;;;;;
2019/11/30 04:02:36;;;;;;;11.5;5.7;;;;;;;3.59;85.99805;941.5659;;;;
2019/11/30 04:05:07;;;;;;;12.8;6.5;;;;;;;3.64;85.7041;941.4917;;;;
2019/11/30 04:07:30;;;;;;;11.4;6.1;;;;;;;3.64;85.32324;941.6022;;;;
2019/11/30 04:09:58;;;;;;;13.9;6.3;;;;;;;3.66;84.90918;941.5139;;;;
2019/11/30 04:12:25;;;;;;;15.4;7.7;;;;;;;3.68;84.74609;941.6454;;;;
2019/11/30 04:14:50;;;;;;;12.7;7.6;;;;;;;3.65;84.93164;941.6575;;;;
2019/11/30 04:17:20;;;;;;;15.1;7.4;;;;;;;3.68;84.65625;941.6555;;;;
2019/11/30 04:19:44;;;;;;;16.7;7.5;;;;;;;3.71;84.77441;941.675;;;;
2019/11/30 04:22:11;;;;;;;12.8;6.4;;;;;;;3.76;85.25684;941.6777;;;;
2019/11/30 04:24:43;;;;;;;11.4;6.4;;;;;;;3.75;84.89551;941.6923;;;;
2019/11/30 04:27:08;;;;;;;12.2;6.9;;;;;;;3.71;85.40332;941.6727;;;;
2019/11/30 04:29:36;;;;;;;14.2;7.9;;;;;;;3.69;85.80469;941.6253;;;;
2019/11/30 04:32:00;;;;;;;13.5;7.4;;;;;;;3.71;85.11133;941.6969;;;;
2019/11/30 04:34:26;;;;;;;10;6.3;;;;;;;3.71;84.90918;941.8082;;;;
2019/11/30 04:36:54;;;;;;;10.9;6.7;;;;;;;3.61;85.14941;941.868;;;;
2019/11/30 04:39:16;;;;;;;11.2;6.7;;;;;;;3.57;85.11816;941.9004;;;;
2019/11/30 04:41:43;;;;;;;12.3;7.1;;;;;;;3.57;85.54492;941.9059;;;;
2019/11/30 04:44:06;;;;;;;13.1;7.4;;;;;;;3.59;85.24512;941.9422;;;;
2019/11/30 04:46:33;;;;;;;15.1;8;;;;;;;3.55;84.81152;941.9146;;;;
2019/11/30 04:48:56;;;;;;;13;8.5;;;;;;;3.56;85.33008;941.9411;;;;
2019/11/30 04:51:24;;;;;;;16.2;9.8;;;;;;;3.57;85.55664;941.9753;;;;
2019/11/30 04:53:49;;;;;;;13.7;10.1;;;;;;;3.62;85.65723;942.0029;;;;
2019/11/30 04:56:15;;;;;;;15.3;9.3;;;;;;;3.73;84.20508;942.0095;;;;
2019/11/30 04:58:43;;;;;;;14.2;9.2;;;;;;;3.72;84.41797;941.9778;;;;
2019/11/30 05:01:13;;;;;;;13.1;8.6;;;;;;;3.76;84.02051;942.0134;;;;
2019/11/30 05:03:39;;;;;;;17.3;12.6;;;;;;;3.77;85.20313;942.053;;;;
2019/11/30 05:06:04;;;;;;;15.5;12;;;;;;;3.75;85.19922;942.0616;;;;
2019/11/30 05:08:30;;;;;;;15.9;11.3;;;;;;;3.69;85.45605;942.0427;;;;
2019/11/30 05:10:57;;;;;;;13;9.2;;;;;;;3.68;85.38672;941.9629;;;;
2019/11/30 05:13:34;;;;;;;14;9.2;;;;;;;3.7;85.12109;942.098;;;;
2019/11/30 05:15:50;;;;;;;13.5;8;;;;;;;3.64;84.64941;942.1006;;;;
2019/11/30 05:18:25;;;;;;;13.1;8.3;;;;;;;3.42;84.53711;942.0917;;;;
2019/11/30 05:23:28;;;;;;;12;8.2;;;;;;;3.36;85.72754;942.0931;;;;
2019/11/30 05:25:54;;;;;;;14;9.1;;;;;;;3.44;85.50684;942.1304;;;;
2019/11/30 05:28:19;;;;;;;13.8;8.6;;;;;;;3.42;85.21094;942.1437;;;;
2019/11/30 05:30:49;;;;;;;12.2;8.7;;;;;;;3.35;85.74609;942.1042;;;;
2019/11/30 05:33:16;;;;;;;15.6;9.6;;;;;;;3.32;85.5166;942.1337;;;;
2019/11/30 05:35:45;;;;;;;14.7;9.5;;;;;;;3.45;85.79102;942.1837;;;;
2019/11/30 05:38:16;;;;;;;16.6;10.1;;;;;;;3.44;85.26172;942.1816;;;;
2019/11/30 05:41:10;;;;;;;18;11.3;;;;;;;3.26;85.12402;942.209;;;;
2019/11/30 05:43:38;;;;;;;18.2;11.5;;;;;;;3.2;86.15527;942.158;;;;
2019/11/30 05:46:04;;;;;;;19.1;11.7;;;;;;;3.28;86.3291;942.1479;;;;
2019/11/30 05:48:27;;;;;;;18.6;13.1;;;;;;;3.37;86.40332;942.1579;;;;
2019/11/30 05:50:52;;;;;;;18.6;11.8;;;;;;;3.34;85.74609;942.2252;;;;
2019/11/30 05:53:19;;;;;;;18.7;12.9;;;;;;;3.35;86.49902;942.15;;;;
2019/11/30 05:55:47;;;;;;;17.2;13.2;;;;;;;3.4;86.4873;942.1624;;;;
2019/11/30 05:58:07;;;;;;;18.5;13.6;;;;;;;3.44;86.4502;942.065;;;;
2019/11/30 06:00:32;;;;;;;22.3;14.4;;;;;;;3.48;86.14453;942.1541;;;;
2019/11/30 06:03:01;;;;;;;23.2;14;;;;;;;3.58;85.40039;942.1205;;;;
2019/11/30 06:06:08;;;;;;;19.8;14;;;;;;;3.59;85.34668;942.128;;;;
2019/11/30 06:08:29;;;;;;;17.6;15.6;;;;;;;3.54;85.48145;942.1439;;;;
2019/11/30 06:10:54;;;;;;;21.4;17.4;;;;;;;3.39;86.02539;942.1635;;;;
2019/11/30 06:13:35;;;;;;;23.1;16.6;;;;;;;3.39;86.25879;942.157;;;;
2019/11/30 06:16:07;;;;;;;16.5;11.7;;;;;;;3.49;86.5166;942.1222;;;;
2019/11/30 06:18:33;;;;;;;15.7;11.8;;;;;;;3.51;86.2959;942.2317;;;;
2019/11/30 06:21:02;;;;;;;17;10.6;;;;;;;3.59;86.34473;942.2531;;;;
2019/11/30 06:23:26;;;;;;;16.2;9.4;;;;;;;3.61;86.24902;942.267;;;;
2019/11/30 06:25:52;;;;;;;16.5;8.7;;;;;;;3.56;85.94531;942.2439;;;;
2019/11/30 06:28:23;;;;;;;16.4;9.4;;;;;;;3.55;85.93457;942.2617;;;;
2019/11/30 06:30:53;;;;;;;16;9.6;;;;;;;3.55;85.37305;942.2257;;;;
2019/11/30 06:33:24;;;;;;;17.4;10.4;;;;;;;3.53;85.96289;942.2327;;;;
2019/11/30 06:35:45;;;;;;;16.5;10.3;;;;;;;3.48;85.2793;942.2076;;;;
2019/11/30 06:38:16;;;;;;;12.8;9;;;;;;;3.29;85.84766;942.1906;;;;
2019/11/30 06:40:52;;;;;;;13.4;8.5;;;;;;;3.17;86.28418;942.2285;;;;
2019/11/30 06:43:21;;;;;;;16;9.2;;;;;;;3.29;86.1416;942.2177;;;;
2019/11/30 06:45:48;;;;;;;14.6;9.2;;;;;;;3.3;86.41113;942.2578;;;;
2019/11/30 06:48:12;;;;;;;13.7;8.7;;;;;;;3.15;85.78516;942.3078;;;;
2019/11/30 06:50:36;;;;;;;12.1;8.4;;;;;;;2.98;86.10938;942.3103;;;;
2019/11/30 06:53:02;;;;;;;14.5;9.2;;;;;;;3;86.87598;942.3113;;;;
2019/11/30 06:55:30;;;;;;;15.5;10.9;;;;;;;2.93;86.80664;942.3262;;;;
2019/11/30 06:57:55;;;;;;;31.7;21.9;;;;;;;2.89;87.41602;942.3301;;;;
2019/11/30 07:00:25;;;;;;;28.9;20.3;;;;;;;2.97;86.99414;942.3625;;;;
2019/11/30 07:02:47;;;;;;;29.6;20.1;;;;;;;3.07;87.10352;942.3753;;;;
2019/11/30 07:05:14;;;;;;;28.5;18.7;;;;;;;3.23;86.54199;942.3331;;;;
2019/11/30 07:07:37;;;;;;;24.8;17;;;;;;;3.37;85.89844;942.2672;;;;
2019/11/30 07:10:07;;;;;;;22.6;15.9;;;;;;;3.42;85.85059;942.3137;;;;
2019/11/30 07:12:29;;;;;;;27.3;17.5;;;;;;;3.53;86.34473;942.4158;;;;
2019/11/30 07:14:56;;;;;;;14.9;11.9;;;;;;;3.66;84.99902;942.4295;;;;
2019/11/30 07:17:28;;;;;;;20;12;;;;;;;3.67;84.98047;942.4081;;;;
2019/11/30 07:19:50;;;;;;;12;7.1;;;;;;;3.68;85.00488;942.3801;;;;
2019/11/30 07:22:16;;;;;;;11.6;6.9;;;;;;;3.66;85.0332;942.3934;;;;
2019/11/30 07:24:42;;;;;;;11.1;5.4;;;;;;;3.69;84.39844;942.4063;;;;
2019/11/30 07:27:14;;;;;;;10.4;4.9;;;;;;;3.79;83.66699;942.4579;;;;
2019/11/30 07:29:37;;;;;;;10.4;5.8;;;;;;;3.84;83.6543;942.4966;;;;
2019/11/30 07:32:03;;;;;;;14.4;7.7;;;;;;;3.98;83.27832;942.5676;;;;
2019/11/30 07:34:29;;;;;;;16.7;8.1;;;;;;;4.05;82.64746;942.617;;;;
2019/11/30 07:37:17;;;;;;;13.8;8.3;;;;;;;4;83.3584;942.6392;;;;
2019/11/30 07:39:22;;;;;;;15.4;8.9;;;;;;;3.98;83.55957;942.6111;;;;
2019/11/30 07:41:45;;;;;;;12.8;7.6;;;;;;;4.02;82.63184;942.6489;;;;
2019/11/30 07:44:13;;;;;;;16.1;8.5;;;;;;;4.07;82.93457;942.6559;;;;
2019/11/30 07:46:39;;;;;;;12.6;7.1;;;;;;;4.09;81.63281;942.7173;;;;
2019/11/30 07:49:11;;;;;;;11.5;7.1;;;;;;;4.01;82.0127;942.7266;;;;
2019/11/30 07:51:33;;;;;;;11.1;7.1;;;;;;;3.97;82.30762;942.764;;;;
2019/11/30 07:56:37;;;;;;;11;6.5;;;;;;;3.81;82.6582;942.7001;;;;
2019/11/30 07:59:06;;;;;;;9.6;5.9;;;;;;;3.77;82.22656;942.7227;;;;
2019/11/30 08:01:43;;;;;;;9.6;5.3;;;;;;;3.79;82.41895;942.7626;;;;
2019/11/30 08:04:07;;;;;;;9.9;5.4;;;;;;;3.83;81.79785;942.7174;;;;
2019/11/30 08:06:33;;;;;;;11.6;6.5;;;;;;;3.87;82.49121;942.7584;;;;
2019/11/30 08:09:02;;;;;;;12.4;6.4;;;;;;;3.94;82.98828;942.7015;;;;
2019/11/30 08:11:36;;;;;;;9.4;6;;;;;;;3.92;83.07324;942.7297;;;;
2019/11/30 08:14:25;;;;;;;19.6;8.1;;;;;;;4.02;83.66602;942.7003;;;;
2019/11/30 08:16:52;;;;;;;9.3;6.2;;;;;;;;;;;;;
2019/11/30 08:19:17;;;;;;;11;6.9;;;;;;;;;;;;;
2019/11/30 08:21:41;;;;;;;11.6;7.5;;;;;;;;;;;;;
2019/11/30 08:24:14;;;;;;;9.4;6.3;;;;;;;;;;;;;
2019/11/30 08:26:44;;;;;;;11;5.8;;;;;;;;;;;;;
2019/11/30 08:29:09;;;;;;;8.8;5.2;;;;;;;;;;;;;
2019/11/30 08:31:34;;;;;;;8.8;4.7;;;;;;;;;;;;;
2019/11/30 08:34:05;;;;;;;9.6;4.3;;;;;;;;;;;;;
2019/11/30 08:36:32;;;;;;;14.8;5.5;;;;;;;;;;;;;
2019/11/30 08:41:22;;;;;;;11.6;6.6;;;;;;;;;;;;;
2019/11/30 08:43:46;;;;;;;11.7;6.5;;;;;;;;;;;;;
2019/11/30 08:46:17;;;;;;;15.3;6.9;;;;;;;;;;;;;
2019/11/30 08:48:39;;;;;;;9.1;5;;;;;;;;;;;;;
2019/11/30 08:53:28;;;;;;;14.3;10.4;;;;;;;;;;;;;
2019/11/30 08:55:52;;;;;;;15.7;10.8;;;;;;;;;;;;;
2019/11/30 08:58:23;;;;;;;10.6;6.6;;;;;;;;;;;;;
2019/11/30 09:00:52;;;;;;;10.5;6.3;;;;;;;;;;;;;
2019/11/30 09:03:14;;;;;;;11;6.7;;;;;;;;;;;;;
2019/11/30 09:05:40;;;;;;;12.8;6.7;;;;;;;;;;;;;
2019/11/30 09:08:05;;;;;;;11.1;6.3;;;;;;;;;;;;;
2019/11/30 09:10:32;;;;;;;9.3;6.2;;;;;;;;;;;;;
2019/11/30 09:12:54;;;;;;;12.6;6.6;;;;;;;;;;;;;
2019/11/30 09:15:19;;;;;;;8.7;6.1;;;;;;;;;;;;;
2019/11/30 09:17:45;;;;;;;13.2;7.4;;;;;;;;;;;;;
2019/11/30 09:20:12;;;;;;;12.9;7;;;;;;;;;;;;;
2019/11/30 09:22:36;;;;;;;11;6.7;;;;;;;;;;;;;
2019/11/30 09:25:04;;;;;;;9;5.9;;;;;;;;;;;;;
2019/11/30 09:27:29;;;;;;;11.9;7.1;;;;;;;;;;;;;
2019/11/30 09:30:01;;;;;;;9.8;6.2;;;;;;;;;;;;;
2019/11/30 09:32:17;;;;;;;9.4;5.1;;;;;;;;;;;;;
2019/11/30 09:34:45;;;;;;;8.9;5.5;;;;;;;;;;;;;
2019/11/30 09:37:08;;;;;;;9.1;5.3;;;;;;;;;;;;;
2019/11/30 09:39:34;;;;;;;9.2;5.3;;;;;;;;;;;;;
2019/11/30 09:42:03;;;;;;;8.9;4.7;;;;;;;;;;;;;
2019/11/30 09:44:33;;;;;;;10.4;5.2;;;;;;;;;;;;;
2019/11/30 09:46:53;;;;;;;9.5;5;;;;;;;;;;;;;
2019/11/30 09:49:18;;;;;;;8.7;4.6;;;;;;;;;;;;;
2019/11/30 09:51:44;;;;;;;9;5;;;;;;;;;;;;;
2019/11/30 09:54:09;;;;;;;8.3;5.4;;;;;;;;;;;;;
2019/11/30 09:56:34;;;;;;;8.1;5.5;;;;;;;;;;;;;
2019/11/30 09:59:06;;;;;;;10.3;5.5;;;;;;;;;;;;;
2019/11/30 10:01:27;;;;;;;13.6;5.8;;;;;;;;;;;;;
2019/11/30 10:03:50;;;;;;;11.6;6;;;;;;;;;;;;;
2019/11/30 10:06:15;;;;;;;8.7;5.6;;;;;;;;;;;;;
2019/11/30 10:08:42;;;;;;;10.8;6.1;;;;;;;;;;;;;
2019/11/30 10:11:05;;;;;;;9.9;5.9;;;;;;;;;;;;;
2019/11/30 10:13:32;;;;;;;12.4;6;;;;;;;;;;;;;
2019/11/30 10:16:22;;;;;;;11.2;6;;;;;;;;;;;;;
2019/11/30 10:18:45;;;;;;;13.1;6.8;;;;;;;;;;;;;
2019/11/30 10:21:11;;;;;;;12;6.6;;;;;;;;;;;;;
2019/11/30 10:23:38;;;;;;;13.2;6.2;;;;;;;;;;;;;
2019/11/30 10:26:07;;;;;;;11.4;5.6;;;;;;;;;;;;;
2019/11/30 10:28:38;;;;;;;10;6;;;;;;;;;;;;;
2019/11/30 10:30:57;;;;;;;13.4;6.2;;;;;;;;;;;;;
2019/11/30 10:33:21;;;;;;;10.1;5.8;;;;;;;;;;;;;
2019/11/30 10:35:46;;;;;;;11.3;6;;;;;;;;;;;;;
2019/11/30 10:38:11;;;;;;;11.2;6.1;;;;;;;;;;;;;
2019/11/30 10:40:40;;;;;;;11.1;6;;;;;;;;;;;;;
2019/11/30 10:43:02;;;;;;;12.4;6.3;;;;;;;;;;;;;
2019/11/30 10:45:26;;;;;;;11.8;6.3;;;;;;;;;;;;;
2019/11/30 10:47:51;;;;;;;12.1;6.4;;;;;;;;;;;;;
2019/11/30 10:50:16;;;;;;;11;6;;;;;;;;;;;;;
2019/11/30 10:52:43;;;;;;;12.6;6.7;;;;;;;;;;;;;
2019/11/30 10:55:06;;;;;;;13.9;6.9;;;;;;;;;;;;;
2019/11/30 10:57:33;;;;;;;10.9;6.7;;;;;;;;;;;;;
2019/11/30 10:59:58;;;;;;;11.9;6.5;;;;;;;;;;;;;
2019/11/30 11:02:24;;;;;;;11.8;6.5;;;;;;;;;;;;;
2019/11/30 11:04:50;;;;;;;9.9;6;;;;;;;;;;;;;
2019/11/30 11:07:14;;;;;;;14.9;11.2;;;;;;;;;;;;;
2019/11/30 11:09:46;;;;;;;12.3;6.4;;;;;;;;;;;;;
2019/11/30 11:12:05;;;;;;;9.9;5.2;;;;;;;;;;;;;
2019/11/30 11:14:30;;;;;;;10.9;4.7;;;;;;;;;;;;;
2019/11/30 11:16:59;;;;;;;9.2;4.9;;;;;;;;;;;;;
2019/11/30 11:21:47;;;;;;;9.8;5.1;;;;;;;;;;;;;
2019/11/30 11:24:11;;;;;;;9.8;5;;;;;;;;;;;;;
2019/11/30 11:26:37;;;;;;;10;5;;;;;;;;;;;;;
2019/11/30 11:29:03;;;;;;;9.2;5;;;;;;;;;;;;;
2019/11/30 11:31:28;;;;;;;10.3;5;;;;;;;;;;;;;
2019/11/30 11:33:53;;;;;;;8.7;4.7;;;;;;;;;;;;;
2019/11/30 11:36:20;;;;;;;11;4.8;;;;;;;;;;;;;
2019/11/30 11:38:47;;;;;;;10.2;4.5;;;;;;;;;;;;;
2019/11/30 11:41:11;;;;;;;8.8;4.6;;;;;;;;;;;;;
2019/11/30 11:43:39;;;;;;;9.7;4.6;;;;;;;;;;;;;
2019/11/30 11:46:02;;;;;;;9.6;4;;;;;;;;;;;;;
2019/11/30 11:48:28;;;;;;;14;4.5;;;;;;;;;;;;;
2019/11/30 11:50:51;;;;;;;12.1;4.2;;;;;;;;;;;;;
2019/11/30 11:53:24;;;;;;;12.5;3.8;;;;;;;;;;;;;
2019/11/30 11:55:48;;;;;;;8.9;3.7;;;;;;;;;;;;;
2019/11/30 11:58:16;;;;;;;9.1;3.5;;;;;;;;;;;;;
2019/11/30 12:00:41;;;;;;;11.6;4.2;;;;;;;;;;;;;
2019/11/30 12:03:04;;;;;;;10.7;5.1;;;;;;;;;;;;;
2019/11/30 12:05:33;;;;;;;11.3;5.3;;;;;;;;;;;;;
2019/11/30 12:07:59;;;;;;;12.9;5.2;;;;;;;;;;;;;
2019/11/30 12:10:24;;;;;;;13.2;5.8;;;;;;;;;;;;;
2019/11/30 12:12:47;;;;;;;12.1;5.9;;;;;;;;;;;;;
2019/11/30 12:15:18;;;;;;;10.9;5.3;;;;;;;;;;;;;
2019/11/30 12:17:37;;;;;;;11.9;5.8;;;;;;;;;;;;;
2019/11/30 12:20:03;;;;;;;12.1;5.9;;;;;;;;;;;;;
2019/11/30 12:22:28;;;;;;;12.3;6.2;;;;;;;;;;;;;
2019/11/30 12:24:58;;;;;;;13.7;5.9;;;;;;;;;;;;;
2019/11/30 12:27:23;;;;;;;10.7;5;;;;;;;;;;;;;
2019/11/30 12:32:18;;;;;;;9;3.9;;;;;;;;;;;;;
2019/11/30 12:34:45;;;;;;;9.1;4.3;;;;;;;;;;;;;
2019/11/30 12:37:12;;;;;;;9.3;3.8;;;;;;;;;;;;;
2019/11/30 12:39:35;;;;;;;8.7;4.1;;;;;;;;;;;;;
2019/11/30 12:42:00;;;;;;;8.5;3.7;;;;;;;;;;;;;
2019/11/30 12:44:25;;;;;;;10.4;4.3;;;;;;;;;;;;;
2019/11/30 12:46:51;;;;;;;9.6;4.8;;;;;;;;;;;;;
2019/11/30 12:49:19;;;;;;;10.2;4.6;;;;;;;;;;;;;
2019/11/30 12:51:40;;;;;;;11.7;5.4;;;;;;;;;;;;;
2019/11/30 12:54:05;;;;;;;13.7;5.5;;;;;;;;;;;;;
2019/11/30 12:56:32;;;;;;;12.1;4.9;;;;;;;;;;;;;
2019/11/30 12:58:57;;;;;;;11.8;5.5;;;;;;;;;;;;;
2019/11/30 13:01:21;;;;;;;10.6;5.5;;;;;;;;;;;;;
2019/11/30 13:03:49;;;;;;;10.4;5;;;;;;;;;;;;;
2019/11/30 13:06:25;;;;;;;10;4.7;;;;;;;;;;;;;
2019/11/30 13:13:26;;;;;;;11.4;5.4;;;;;;;;;;;;;
2019/11/30 13:15:55;;;;;;;9;4.9;;;;;;;;;;;;;
2019/11/30 13:18:17;;;;;;;10;5.8;;;;;;;;;;;;;
2019/11/30 13:20:42;;;;;;;11.1;5.3;;;;;;;;;;;;;
2019/11/30 13:23:07;;;;;;;10.7;5.2;;;;;;;;;;;;;
2019/11/30 13:25:34;;;;;;;13.4;5.5;;;;;;;;;;;;;
2019/11/30 13:27:58;;;;;;;11.7;5.2;;;;;;;;;;;;;
2019/11/30 13:30:24;;;;;;;11.8;5.5;;;;;;;;;;;;;
2019/11/30 13:32:49;;;;;;;12.4;5.7;;;;;;;;;;;;;
2019/11/30 13:35:16;;;;;;;12.7;5.5;;;;;;;;;;;;;
2019/11/30 13:37:43;;;;;;;13.3;6.1;;;;;;;;;;;;;
2019/11/30 13:40:15;;;;;;;14.8;6.1;;;;;;;;;;;;;
2019/11/30 13:42:30;;;;;;;13.4;6.2;;;;;;;;;;;;;
2019/11/30 13:45:00;;;;;;;10.4;5.3;;;;;;;;;;;;;
2019/11/30 13:47:20;;;;;;;15.4;6;;;;;;;;;;;;;
2019/11/30 13:49:46;;;;;;;9.9;4.2;;;;;;;;;;;;;
2019/11/30 13:52:11;;;;;;;9.6;4.7;;;;;;;;;;;;;
2019/11/30 13:54:39;;;;;;;13.6;6.8;;;;;;;;;;;;;
2019/11/30 13:57:02;;;;;;;13.7;6.8;;;;;;;;;;;;;
2019/11/30 13:59:28;;;;;;;15.4;7.8;;;;;;;;;;;;;
2019/11/30 14:01:52;;;;;;;13.6;6.5;;;;;;;;;;;;;
2019/11/30 14:04:19;;;;;;;14.2;6.3;;;;;;;;;;;;;
2019/11/30 14:06:52;;;;;;;19.7;11.4;;;;;;;;;;;;;
2019/11/30 14:09:18;;;;;;;14.7;6.9;;;;;;;;;;;;;
2019/11/30 14:14:07;;;;;;;9.6;4.4;;;;;;;;;;;;;
2019/11/30 14:19:12;;;;;;;15.8;8;;;;;;;;;;;;;
2019/11/30 14:21:44;;;;;;;19.3;11.8;;;;;;;;;;;;;
2019/11/30 14:24:06;;;;;;;17.7;8;;;;;;;;;;;;;
2019/11/30 14:26:35;;;;;;;21.2;11;;;;;;;;;;;;;
2019/11/30 14:29:02;;;;;;;24.1;12.1;;;;;;;;;;;;;
2019/11/30 14:31:29;;;;;;;15.7;8.7;;;;;;;;;;;;;
2019/11/30 14:33:56;;;;;;;18.1;8.6;;;;;;;;;;;;;
2019/11/30 14:36:22;;;;;;;16.7;6.9;;;;;;;;;;;;;
2019/11/30 14:38:51;;;;;;;10.4;5.8;;;;;;;;;;;;;
2019/11/30 14:41:15;;;;;;;14.8;6.9;;;;;;;;;;;;;
2019/11/30 14:44:52;;;;;;;18.7;9.2;;;;;;;;;;;;;
2019/11/30 14:51:12;;;;;;;16.3;7.2;;;;;;;;;;;;;
2019/11/30 14:53:20;;;;;;;16.5;7.2;;;;;;;;;;;;;
2019/11/30 14:55:52;;;;;;;17.6;7.9;;;;;;;;;;;;;
2019/11/30 14:58:11;;;;;;;13.7;7;;;;;;;;;;;;;
2019/11/30 15:00:38;;;;;;;19;9.6;;;;;;;;;;;;;
2019/11/30 15:03:02;;;;;;;24.7;14.5;;;;;;;;;;;;;
2019/11/30 15:05:30;;;;;;;19.6;10.3;;;;;;;;;;;;;
2019/11/30 15:07:52;;;;;;;19.6;10;;;;;;;;;;;;;
2019/11/30 15:10:18;;;;;;;19.9;9.4;;;;;;;;;;;;;
2019/11/30 15:12:43;;;;;;;20.6;11.1;;;;;;;;;;;;;
2019/11/30 15:15:55;;;;;;;17.8;11.2;;;;;;;;;;;;;
2019/11/30 15:17:46;;;;;;;17.5;11.3;;;;;;;;;;;;;
2019/11/30 15:19:58;;;;;;;16.8;8.4;;;;;;;;;;;;;
2019/11/30 15:22:24;;;;;;;15.2;7.5;;;;;;;;;;;;;
2019/11/30 15:24:54;;;;;;;14.9;8.6;;;;;;;;;;;;;
2019/11/30 15:27:15;;;;;;;15.2;8.2;;;;;;;;;;;;;
2019/11/30 15:29:41;;;;;;;16.7;9.1;;;;;;;;;;;;;
2019/11/30 15:32:06;;;;;;;16.5;9.6;;;;;;;;;;;;;
2019/11/30 15:34:32;;;;;;;20.3;11.3;;;;;;;;;;;;;
2019/11/30 15:36:56;;;;;;;21.4;13.9;;;;;;;;;;;;;
2019/11/30 15:39:22;;;;;;;24.3;15.8;;;;;;;;;;;;;
2019/11/30 15:41:49;;;;;;;21.8;13.4;;;;;;;;;;;;;
2019/11/30 15:44:12;;;;;;;19.5;12.1;;;;;;;;;;;;;
2019/11/30 15:46:40;;;;;;;19.9;12.1;;;;;;;;;;;;;
2019/11/30 15:49:20;;;;;;;17.3;10.2;;;;;;;;;;;;;
2019/11/30 15:51:42;;;;;;;16.3;9.8;;;;;;;;;;;;;
2019/11/30 15:54:06;;;;;;;15.5;9.8;;;;;;;;;;;;;
2019/11/30 15:56:32;;;;;;;17.2;11;;;;;;;;;;;;;
2019/11/30 15:58:59;;;;;;;18.3;11.2;;;;;;;;;;;;;
2019/11/30 16:01:21;;;;;;;20.3;12.6;;;;;;;;;;;;;
2019/11/30 16:03:47;;;;;;;20.3;12.7;;;;;;;;;;;;;
2019/11/30 16:06:12;;;;;;;19.5;13.4;;;;;;;;;;;;;
2019/11/30 16:08:48;;;;;;;21.2;13.5;;;;;;;;;;;;;
2019/11/30 16:11:16;;;;;;;19;12.5;;;;;;;;;;;;;
2019/11/30 16:13:37;;;;;;;20.7;12.7;;;;;;;;;;;;;
2019/11/30 16:18:46;;;;;;;22.1;13.1;;;;;;;;;;;;;
2019/11/30 16:21:16;;;;;;;18.5;11.9;;;;;;;;;;;;;
2019/11/30 16:23:25;;;;;;;20.4;12.2;;;;;;;;;;;;;
2019/11/30 16:25:44;;;;;;;18.5;12;;;;;;;;;;;;;
2019/11/30 16:28:14;;;;;;;20.5;11.6;;;;;;;;;;;;;
2019/11/30 16:30:35;;;;;;;17.3;11.4;;;;;;;;;;;;;
2019/11/30 16:33:01;;;;;;;22;14.8;;;;;;;;;;;;;
2019/11/30 16:35:26;;;;;;;24.8;16;;;;;;;;;;;;;
2019/11/30 16:37:53;;;;;;;21;13.9;;;;;;;;;;;;;
2019/11/30 16:40:18;;;;;;;18.6;13.2;;;;;;;;;;;;;
2019/11/30 16:42:42;;;;;;;26.1;17.8;;;;;;;;;;;;;
2019/11/30 16:45:06;;;;;;;35.8;22.1;;;;;;;;;;;;;
2019/11/30 16:47:33;;;;;;;28.1;19.5;;;;;;;;;;;;;
2019/11/30 16:50:43;;;;;;;36.1;20.8;;;;;;;;;;;;;
2019/11/30 16:52:20;;;;;;;40.6;24;;;;;;;;;;;;;
2019/11/30 16:54:46;;;;;;;34.3;22;;;;;;;;;;;;;
2019/11/30 16:57:12;;;;;;;27.9;17.2;;;;;;;;;;;;;
2019/11/30 16:59:41;;;;;;;21.1;12.6;;;;;;;;;;;;;
2019/11/30 17:02:04;;;;;;;21.4;12.3;;;;;;;;;;;;;
2019/11/30 17:04:29;;;;;;;23.6;12.4;;;;;;;;;;;;;
2019/11/30 17:06:56;;;;;;;21.3;11.8;;;;;;;;;;;;;
2019/11/30 17:09:26;;;;;;;18.6;11.7;;;;;;;;;;;;;
2019/11/30 17:11:49;;;;;;;21;12.4;;;;;;;;;;;;;
2019/11/30 17:14:14;;;;;;;24.1;13.3;;;;;;;;;;;;;
2019/11/30 17:16:43;;;;;;;25.9;16.7;;;;;;;;;;;;;
2019/11/30 17:19:08;;;;;;;24.4;15.7;;;;;;;;;;;;;
2019/11/30 17:21:35;;;;;;;24.5;16.3;;;;;;;;;;;;;
2019/11/30 17:23:59;;;;;;;21.2;15.2;;;;;;;;;;;;;
2019/11/30 17:26:23;;;;;;;21.7;16.2;;;;;;;;;;;;;
2019/11/30 17:28:48;;;;;;;24.7;17.8;;;;;;;;;;;;;
2019/11/30 17:31:16;;;;;;;20.5;14.5;;;;;;;;;;;;;
2019/11/30 17:33:41;;;;;;;21.6;13.1;;;;;;;;;;;;;
2019/11/30 17:36:06;;;;;;;22.4;14.6;;;;;;;;;;;;;
2019/11/30 17:38:35;;;;;;;23;14.2;;;;;;;;;;;;;
2019/11/30 17:41:00;;;;;;;24.8;16;;;;;;;;;;;;;
2019/11/30 17:43:25;;;;;;;25.3;16.6;;;;;;;;;;;;;
2019/11/30 17:45:56;;;;;;;29;17.9;;;;;;;;;;;;;
2019/11/30 17:48:15;;;;;;;27.7;19;;;;;;;;;;;;;
2019/11/30 17:50:41;;;;;;;28.1;18.2;;;;;;;;;;;;;
2019/11/30 17:53:06;;;;;;;27.6;19.7;;;;;;;;;;;;;
2019/11/30 17:57:58;;;;;;;33.4;21.8;;;;;;;;;;;;;
2019/11/30 18:00:37;;;;;;;35.9;26.9;;;;;;;;;;;;;
2019/11/30 18:02:57;;;;;;;35.4;24.9;;;;;;;;;;;;;
2019/11/30 18:05:14;;;;;;;30.3;19.1;;;;;;;;;;;;;
2019/11/30 18:07:37;;;;;;;41;23.4;;;;;;;;;;;;;
2019/11/30 18:10:02;;;;;;;39.1;19.7;;;;;;;;;;;;;
2019/11/30 18:12:29;;;;;;;34.5;18.1;;;;;;;;;;;;;
2019/11/30 18:14:57;;;;;;;31.8;17.2;;;;;;;;;;;;;
2019/11/30 18:17:20;;;;;;;24.5;14.1;;;;;;;;;;;;;
2019/11/30 18:19:45;;;;;;;25.4;14;;;;;;;;;;;;;
2019/11/30 18:22:11;;;;;;;29.3;14.9;;;;;;;;;;;;;
2019/11/30 18:24:42;;;;;;;35.2;20.7;;;;;;;;;;;;;
2019/11/30 18:27:01;;;;;;;38.2;23;;;;;;;;;;;;;
2019/11/30 18:29:28;;;;;;;41.1;25.1;;;;;;;;;;;;;
2019/11/30 18:31:55;;;;;;;131.7;101.4;;;;;;;;;;;;;
2019/11/30 18:34:21;;;;;;;50.3;34.9;;;;;;;;;;;;;
2019/11/30 18:37:15;;;;;;;68.1;47.5;;;;;;;;;;;;;
2019/11/30 18:39:38;;;;;;;40.8;30.7;;;;;;;;;;;;;
2019/11/30 18:42:03;;;;;;;45.8;33.4;;;;;;;;;;;;;
2019/11/30 18:45:14;;;;;;;43.2;30.5;;;;;;;;;;;;;
2019/11/30 18:46:54;;;;;;;42.5;31.6;;;;;;;;;;;;;
2019/11/30 18:49:19;;;;;;;45.4;31.3;;;;;;;;;;;;;
2019/11/30 18:51:44;;;;;;;45.8;32.1;;;;;;;;;;;;;
2019/11/30 18:54:14;;;;;;;48.7;34;;;;;;;;;;;;;
2019/11/30 18:56:36;;;;;;;50.2;37;;;;;;;;;;;;;
2019/11/30 18:59:00;;;;;;;42.7;31.5;;;;;;;;;;;;;
2019/11/30 19:01:25;;;;;;;45.8;30.6;;;;;;;;;;;;;
2019/11/30 19:03:53;;;;;;;47.6;31.1;;;;;;;;;;;;;
2019/11/30 19:06:15;;;;;;;46.9;30.1;;;;;;;;;;;;;
2019/11/30 19:08:41;;;;;;;36.2;26;;;;;;;;;;;;;
2019/11/30 19:11:06;;;;;;;34.8;23.1;;;;;;;;;;;;;
2019/11/30 19:13:34;;;;;;;40;27.7;;;;;;;;;;;;;